Mount Vernon, Indiana
Current Conditions -  °F | °C
As of 1:15 AM on Friday 19 Dec 2014 (Local Time) from KEHR Reporting Station
Overcast Overcast  
Wind Chill: 32°   Ceiling: 5000
Heat Index: 32°   Visibility: 10mi
Dew Point: 25°   Wind: 3mph
Humidity: 75%   Direction: 360°N
Pressure: 30.27"   Gusts: NA
Location:  37.93°N, 87.9°W
Report Text: KEHR 190715Z AUTO 36003KT 10SM BKN050 OVC080 00/M04 A3027 RMK AO1
Loading
Personal Weather Stations






























Interactive Weather Map New forecast layout! Learn more

10-Day Weather Forecast

Advertisements
Track Severe Weather on mobile